Time;durP1;ratioP1;P1;durP2;ratioP2;P2;SDS_P1;SDS_P2;PMS_P1;PMS_P2;Temp;Humidity;BMP_temperature;BMP_pressure;BME280_temperature;BME280_humidity;BME280_pressure;Samples;Min_cycle;Max_cycle;Signal;HPM_P1;HPM_P2
2020/12/07 00:01:11;;;;;;;67.33;24.63;;;;;;;;;;5042194;28;20210;-72
2020/12/07 00:03:36;;;;;;;59.40;24.77;;;;;;;;;;5037783;28;20200;-71
2020/12/07 00:06:02;;;;;;;56.73;21.77;;;;;;;;;;5048797;28;20683;-71
2020/12/07 00:08:27;;;;;;;66.73;24.47;;;;;;;;;;5037103;28;20275;-72
2020/12/07 00:10:52;;;;;;;56.67;21.83;;;;;;;;;;5050237;28;20189;-72
2020/12/07 00:13:18;;;;;;;54.47;21.97;;;;;;;;;;5037609;28;20196;-72
2020/12/07 00:15:44;;;;;;;59.10;22.37;;;;;;;;;;5052044;28;20641;-72
2020/12/07 00:18:09;;;;;;;45.43;21.40;;;;;;;;;;5047790;28;20208;-72
2020/12/07 00:20:34;;;;;;;50.40;20.47;;;;;;;;;;5037693;28;20652;-72
2020/12/07 00:23:00;;;;;;;37.67;18.53;;;;;;;;;;5049090;28;20648;-72
2020/12/07 00:25:25;;;;;;;45.73;18.77;;;;;;;;;;5041555;28;20624;-72
2020/12/07 00:27:50;;;;;;;52.30;20.37;;;;;;;;;;5047420;28;20197;-72
2020/12/07 00:30:15;;;;;;;46.10;19.93;;;;;;;;;;5042362;28;20190;-72
2020/12/07 00:32:41;;;;;;;46.00;19.07;;;;;;;;;;5048549;28;20229;-72
2020/12/07 00:35:06;;;;;;;38.20;18.87;;;;;;;;;;5040665;28;20190;-72
2020/12/07 00:37:31;;;;;;;40.47;18.10;;;;;;;;;;5047810;28;20279;-72
2020/12/07 00:39:57;;;;;;;43.80;18.63;;;;;;;;;;5041404;28;20206;-72
2020/12/07 00:42:22;;;;;;;45.97;18.60;;;;;;;;;;5049347;28;20583;-72
2020/12/07 00:44:47;;;;;;;41.33;18.80;;;;;;;;;;5042325;28;20806;-72
2020/12/07 00:47:13;;;;;;;40.37;17.00;;;;;;;;;;5047105;28;20173;-72
2020/12/07 00:49:39;;;;;;;45.10;19.40;;;;;;;;;;5050561;28;20185;-72
2020/12/07 00:52:06;;;;;;;40.80;17.50;;;;;;;;;;5037572;28;20185;-72
2020/12/07 00:54:32;;;;;;;35.93;16.63;;;;;;;;;;5049232;28;20182;-72
2020/12/07 00:56:59;;;;;;;32.93;16.03;;;;;;;;;;5039326;28;20207;-72
2020/12/07 00:59:25;;;;;;;48.10;17.63;;;;;;;;;;5050864;28;20228;-72
2020/12/07 01:01:51;;;;;;;30.40;16.20;;;;;;;;;;5044379;28;20177;-72
2020/12/07 01:04:17;;;;;;;33.77;16.70;;;;;;;;;;5054410;28;20189;-73
2020/12/07 01:06:45;;;;;;;36.13;16.17;;;;;;;;;;5043937;28;20719;-73
2020/12/07 01:09:11;;;;;;;31.37;16.27;;;;;;;;;;5051576;28;20225;-74
2020/12/07 01:11:37;;;;;;;28.70;15.03;;;;;;;;;;5043071;28;20188;-73
2020/12/07 01:14:03;;;;;;;26.90;14.57;;;;;;;;;;5053644;28;20189;-73
2020/12/07 01:16:28;;;;;;;26.43;13.93;;;;;;;;;;5041711;28;20564;-73
2020/12/07 01:18:53;;;;;;;23.33;13.50;;;;;;;;;;5052516;28;20635;-73
2020/12/07 01:21:19;;;;;;;29.53;14.53;;;;;;;;;;5050810;28;20284;-73
2020/12/07 01:23:45;;;;;;;27.80;14.93;;;;;;;;;;5044541;28;20189;-73
2020/12/07 01:26:13;;;;;;;27.37;14.80;;;;;;;;;;5051431;28;20656;-73
2020/12/07 01:28:40;;;;;;;27.03;14.87;;;;;;;;;;5043673;28;20263;-73
2020/12/07 01:31:06;;;;;;;24.77;13.60;;;;;;;;;;5050439;28;20535;-74
2020/12/07 01:33:31;;;;;;;30.47;13.90;;;;;;;;;;5045615;28;20232;-76
2020/12/07 01:35:57;;;;;;;23.23;13.53;;;;;;;;;;5050421;28;20571;-76
2020/12/07 01:38:22;;;;;;;32.63;13.30;;;;;;;;;;5043532;28;20288;-75
2020/12/07 01:40:48;;;;;;;26.83;12.30;;;;;;;;;;5046464;28;20622;-75
2020/12/07 01:43:14;;;;;;;23.43;12.27;;;;;;;;;;5044099;28;20704;-76
2020/12/07 01:45:39;;;;;;;18.53;11.10;;;;;;;;;;5052123;28;20234;-75
2020/12/07 01:48:05;;;;;;;19.83;10.73;;;;;;;;;;5042496;28;20543;-74
2020/12/07 01:50:31;;;;;;;18.97;11.00;;;;;;;;;;5053013;28;20208;-72
2020/12/07 01:52:58;;;;;;;20.13;11.40;;;;;;;;;;5049112;28;20213;-73
2020/12/07 01:55:23;;;;;;;19.23;11.17;;;;;;;;;;5040948;28;20660;-72
2020/12/07 01:57:49;;;;;;;21.60;10.53;;;;;;;;;;5050270;28;20200;-72
2020/12/07 02:00:14;;;;;;;22.73;10.77;;;;;;;;;;5057018;28;20232;-72
2020/12/07 02:02:39;;;;;;;24.80;10.07;;;;;;;;;;5051803;28;20201;-73
2020/12/07 02:05:05;;;;;;;16.83;9.80;;;;;;;;;;5041956;28;20279;-72
2020/12/07 02:07:30;;;;;;;18.03;9.40;;;;;;;;;;5050867;28;21465;-72
2020/12/07 02:09:55;;;;;;;15.03;8.90;;;;;;;;;;5041760;28;20224;-72
2020/12/07 02:12:21;;;;;;;16.70;9.07;;;;;;;;;;5052522;28;20319;-74
2020/12/07 02:14:46;;;;;;;14.73;9.27;;;;;;;;;;5042007;28;20182;-76
2020/12/07 02:17:11;;;;;;;16.57;9.33;;;;;;;;;;5051035;28;20200;-76
2020/12/07 02:19:37;;;;;;;16.70;9.30;;;;;;;;;;5044439;28;20208;-75
2020/12/07 02:22:02;;;;;;;17.10;9.67;;;;;;;;;;5052485;28;20192;-77
2020/12/07 02:24:28;;;;;;;15.90;9.10;;;;;;;;;;5050075;28;20280;-77
2020/12/07 02:26:53;;;;;;;15.10;8.90;;;;;;;;;;5045659;28;20197;-77
2020/12/07 02:29:19;;;;;;;13.60;8.23;;;;;;;;;;5051292;28;20191;-77
2020/12/07 02:31:44;;;;;;;16.23;8.90;;;;;;;;;;5047188;28;20185;-76
2020/12/07 02:34:09;;;;;;;17.00;8.47;;;;;;;;;;5052902;28;20240;-77
2020/12/07 02:36:35;;;;;;;19.77;9.13;;;;;;;;;;5042791;28;20217;-77
2020/12/07 02:39:00;;;;;;;15.83;9.00;;;;;;;;;;5042584;28;20178;-77
2020/12/07 02:41:25;;;;;;;15.00;9.03;;;;;;;;;;5042510;28;20641;-76
2020/12/07 02:43:50;;;;;;;21.10;9.60;;;;;;;;;;5049748;28;20192;-75
2020/12/07 02:46:16;;;;;;;18.77;9.30;;;;;;;;;;5042781;28;20260;-74
2020/12/07 02:48:41;;;;;;;18.47;8.80;;;;;;;;;;5050037;28;20227;-74
2020/12/07 02:51:07;;;;;;;14.03;8.67;;;;;;;;;;5045123;28;20188;-74
2020/12/07 02:53:32;;;;;;;15.93;8.93;;;;;;;;;;5045619;28;20518;-75
2020/12/07 02:55:58;;;;;;;16.97;8.93;;;;;;;;;;5050583;28;20637;-77
2020/12/07 02:58:23;;;;;;;14.30;8.93;;;;;;;;;;5042152;28;20319;-75
2020/12/07 03:00:48;;;;;;;19.47;9.30;;;;;;;;;;5050771;28;20254;-76
2020/12/07 03:03:14;;;;;;;14.57;8.63;;;;;;;;;;5043134;28;20201;-76
2020/12/07 03:05:39;;;;;;;16.80;8.63;;;;;;;;;;5051043;28;20706;-76
2020/12/07 03:08:04;;;;;;;13.23;8.13;;;;;;;;;;5045251;28;20221;-77
2020/12/07 03:10:30;;;;;;;14.40;8.57;;;;;;;;;;5048398;28;20177;-78
2020/12/07 03:12:55;;;;;;;17.10;8.37;;;;;;;;;;5042951;28;20637;-78
2020/12/07 03:15:20;;;;;;;13.83;7.83;;;;;;;;;;5047272;28;20189;-77
2020/12/07 03:17:46;;;;;;;14.20;8.57;;;;;;;;;;5041793;28;20177;-77
2020/12/07 03:20:11;;;;;;;10.17;7.03;;;;;;;;;;5050735;28;20209;-77
2020/12/07 03:22:37;;;;;;;11.50;7.03;;;;;;;;;;5050403;28;20182;-77
2020/12/07 03:25:02;;;;;;;13.90;7.47;;;;;;;;;;5040602;28;20189;-76
2020/12/07 03:27:28;;;;;;;17.20;7.90;;;;;;;;;;5049107;28;20246;-74
2020/12/07 03:29:53;;;;;;;13.00;8.30;;;;;;;;;;5043421;28;20189;-76
2020/12/07 03:32:18;;;;;;;13.87;7.67;;;;;;;;;;5049427;28;20196;-76
2020/12/07 03:34:43;;;;;;;14.80;7.97;;;;;;;;;;5042062;28;20212;-76
2020/12/07 03:37:09;;;;;;;12.53;7.03;;;;;;;;;;5048188;28;20563;-74
2020/12/07 03:39:34;;;;;;;10.60;7.07;;;;;;;;;;5040588;28;20703;-74
2020/12/07 03:42:00;;;;;;;12.60;7.10;;;;;;;;;;5049263;28;20635;-74
2020/12/07 03:44:25;;;;;;;13.93;6.90;;;;;;;;;;5039235;28;20714;-73
2020/12/07 03:46:50;;;;;;;12.97;6.80;;;;;;;;;;5050036;28;20208;-73
2020/12/07 03:49:16;;;;;;;10.43;6.60;;;;;;;;;;5041428;28;20210;-73
2020/12/07 03:51:41;;;;;;;10.63;6.63;;;;;;;;;;5048512;28;20268;-76
2020/12/07 03:54:06;;;;;;;11.63;6.83;;;;;;;;;;5051138;28;21170;-77
2020/12/07 03:56:32;;;;;;;11.13;6.90;;;;;;;;;;5041270;28;20189;-77
2020/12/07 03:58:57;;;;;;;12.30;6.90;;;;;;;;;;5051317;28;20196;-77
2020/12/07 04:01:23;;;;;;;10.60;6.77;;;;;;;;;;5040675;28;20208;-77
2020/12/07 04:03:52;;;;;;;13.40;6.53;;;;;;;;;;5066798;28;20178;-77
2020/12/07 04:06:23;;;;;;;13.47;6.70;;;;;;;;;;5044303;28;20196;-77
2020/12/07 04:08:49;;;;;;;12.90;6.93;;;;;;;;;;5052794;28;20270;-78
2020/12/07 04:11:14;;;;;;;12.20;6.83;;;;;;;;;;5041336;28;20252;-76
2020/12/07 04:13:39;;;;;;;14.57;7.10;;;;;;;;;;5050556;28;20204;-75
2020/12/07 04:16:13;;;;;;;13.03;7.03;;;;;;;;;;5043940;28;20250;-74
2020/12/07 04:18:39;;;;;;;11.80;6.53;;;;;;;;;;5048287;28;20180;-71
2020/12/07 04:21:04;;;;;;;12.07;6.57;;;;;;;;;;5040945;28;20223;-72
2020/12/07 04:23:30;;;;;;;15.20;6.87;;;;;;;;;;5049353;28;20224;-71
2020/12/07 04:25:56;;;;;;;11.63;6.73;;;;;;;;;;5041985;28;20276;-71
2020/12/07 04:28:22;;;;;;;13.43;7.00;;;;;;;;;;5044395;28;20621;-71
2020/12/07 04:30:48;;;;;;;11.10;6.67;;;;;;;;;;5046983;28;20190;-73
2020/12/07 04:33:13;;;;;;;15.47;8.00;;;;;;;;;;5039037;28;20229;-73
2020/12/07 04:35:38;;;;;;;13.13;6.83;;;;;;;;;;5049761;28;20251;-70
2020/12/07 04:38:04;;;;;;;12.60;6.80;;;;;;;;;;5040272;28;20196;-71
2020/12/07 04:40:30;;;;;;;12.50;7.20;;;;;;;;;;5046469;28;20254;-71
2020/12/07 04:42:56;;;;;;;10.57;6.17;;;;;;;;;;5037072;28;20546;-71
2020/12/07 04:45:22;;;;;;;12.07;6.67;;;;;;;;;;5048227;28;20645;-71
2020/12/07 04:47:52;;;;;;;11.97;6.47;;;;;;;;;;5040565;28;20238;-70
2020/12/07 04:50:19;;;;;;;11.30;6.10;;;;;;;;;;5048643;28;20181;-71
2020/12/07 04:52:45;;;;;;;10.13;5.70;;;;;;;;;;5038250;28;20173;-71
2020/12/07 04:55:10;;;;;;;11.03;6.27;;;;;;;;;;5048749;28;20212;-71
2020/12/07 04:57:37;;;;;;;9.90;5.40;;;;;;;;;;5037688;28;20216;-71
2020/12/07 05:00:04;;;;;;;9.50;5.60;;;;;;;;;;5049298;28;20615;-71
2020/12/07 05:02:30;;;;;;;10.77;5.53;;;;;;;;;;5047492;28;20260;-71
2020/12/07 05:04:55;;;;;;;9.10;5.50;;;;;;;;;;5036934;28;20588;-72
2020/12/07 05:07:21;;;;;;;9.80;5.30;;;;;;;;;;5047164;28;20228;-72
2020/12/07 05:09:47;;;;;;;9.47;5.50;;;;;;;;;;5037444;28;20178;-72
2020/12/07 05:12:25;;;;;;;8.70;4.73;;;;;;;;;;5046814;28;20189;-73
2020/12/07 05:14:53;;;;;;;10.07;5.03;;;;;;;;;;5056860;28;20196;-72
2020/12/07 05:17:19;;;;;;;7.50;3.93;;;;;;;;;;5045239;28;20243;-72
2020/12/07 05:19:44;;;;;;;6.83;4.17;;;;;;;;;;5039529;28;20687;-73
2020/12/07 05:22:14;;;;;;;8.80;5.40;;;;;;;;;;5045854;28;20255;-72
2020/12/07 05:24:40;;;;;;;10.53;5.63;;;;;;;;;;5042102;28;20177;-72
2020/12/07 05:27:08;;;;;;;11.73;5.87;;;;;;;;;;5046091;28;20236;-72
2020/12/07 05:29:43;;;;;;;9.90;5.53;;;;;;;;;;5036944;28;20180;-72
2020/12/07 05:32:08;;;;;;;12.00;6.17;;;;;;;;;;5044393;28;20196;-72
2020/12/07 05:34:37;;;;;;;8.47;5.20;;;;;;;;;;5039764;28;20229;-73
2020/12/07 05:37:04;;;;;;;10.33;5.23;;;;;;;;;;5040791;28;20557;-71
2020/12/07 05:39:32;;;;;;;9.33;5.30;;;;;;;;;;5038458;28;20229;-72
2020/12/07 05:41:58;;;;;;;8.20;5.13;;;;;;;;;;5062374;28;20178;-71
2020/12/07 05:44:24;;;;;;;10.40;5.57;;;;;;;;;;5047456;28;20384;-71
2020/12/07 05:46:53;;;;;;;10.47;5.60;;;;;;;;;;4351281;28;10000761;-70
2020/12/07 05:49:19;;;;;;;7.97;5.40;;;;;;;;;;5047420;28;20548;-72
2020/12/07 05:51:51;;;;;;;10.30;5.87;;;;;;;;;;5037798;28;20212;-73
2020/12/07 05:54:18;;;;;;;9.13;5.30;;;;;;;;;;5047862;28;20653;-72
2020/12/07 05:56:49;;;;;;;9.30;6.00;;;;;;;;;;5037581;28;20217;-71
2020/12/07 05:59:33;;;;;;;9.03;6.57;;;;;;;;;;5041595;28;20199;-71
2020/12/07 06:02:01;;;;;;;8.10;5.17;;;;;;;;;;5037427;28;20193;-71
2020/12/07 06:04:27;;;;;;;9.50;6.00;;;;;;;;;;5045808;28;20224;-71
2020/12/07 06:07:00;;;;;;;10.53;5.77;;;;;;;;;;5037117;28;20244;-71
2020/12/07 06:09:28;;;;;;;10.27;5.47;;;;;;;;;;5044795;28;20193;-71
2020/12/07 06:12:01;;;;;;;10.03;6.00;;;;;;;;;;5036609;28;20722;-71
2020/12/07 06:14:27;;;;;;;8.80;5.93;;;;;;;;;;5044266;28;20197;-71
2020/12/07 06:16:54;;;;;;;9.23;5.93;;;;;;;;;;5038774;28;20572;-72
2020/12/07 06:19:20;;;;;;;9.93;5.70;;;;;;;;;;5045424;28;20330;-70
2020/12/07 06:21:58;;;;;;;11.67;6.17;;;;;;;;;;5032032;28;20613;-70
2020/12/07 06:24:37;;;;;;;11.93;5.90;;;;;;;;;;5043130;28;20587;-70
2020/12/07 06:27:05;;;;;;;9.23;6.03;;;;;;;;;;5042938;28;20184;-71
2020/12/07 06:29:30;;;;;;;8.97;6.27;;;;;;;;;;5045464;28;20264;-71
2020/12/07 06:31:59;;;;;;;11.50;7.27;;;;;;;;;;5045676;28;20735;-71
2020/12/07 06:34:57;;;;;;;13.33;8.13;;;;;;;;;;4687204;28;10000578;-71
2020/12/07 06:37:25;;;;;;;16.20;8.70;;;;;;;;;;5042144;28;20258;-71
2020/12/07 06:39:50;;;;;;;15.80;9.70;;;;;;;;;;5041766;28;20533;-71
2020/12/07 06:42:18;;;;;;;19.57;11.03;;;;;;;;;;5049318;28;20307;-71
2020/12/07 06:44:45;;;;;;;20.00;11.93;;;;;;;;;;5040416;28;20264;-71
2020/12/07 06:47:18;;;;;;;18.80;11.47;;;;;;;;;;5050130;28;20194;-71
2020/12/07 06:52:12;;;;;;;25.23;14.70;;;;;;;;;;5049611;28;20675;-71
2020/12/07 06:57:29;;;;;;;29.98;16.45;;;;;;;;;;4698510;28;10000854;-71
2020/12/07 06:59:56;;;;;;;29.53;17.10;;;;;;;;;;5035072;28;20212;-71
2020/12/07 07:02:21;;;;;;;31.07;17.60;;;;;;;;;;5044277;28;20177;-71
2020/12/07 07:04:54;;;;;;;34.47;18.53;;;;;;;;;;5037768;28;20196;-71
2020/12/07 07:07:24;;;;;;;35.40;19.17;;;;;;;;;;5048177;28;20292;-71
2020/12/07 07:09:50;;;;;;;29.13;17.47;;;;;;;;;;5037887;28;20182;-71
2020/12/07 07:12:16;;;;;;;34.77;18.70;;;;;;;;;;5047909;28;20193;-71
2020/12/07 07:14:42;;;;;;;34.20;19.77;;;;;;;;;;5033452;28;20572;-71
2020/12/07 07:17:08;;;;;;;34.17;19.63;;;;;;;;;;5049282;28;20185;-71
2020/12/07 07:19:34;;;;;;;31.23;17.80;;;;;;;;;;5037649;28;20202;-71
2020/12/07 07:21:59;;;;;;;33.23;18.97;;;;;;;;;;5043116;28;20189;-71
2020/12/07 07:24:28;;;;;;;33.23;19.73;;;;;;;;;;5046022;28;20170;-71
2020/12/07 07:27:01;;;;;;;33.90;20.57;;;;;;;;;;5036770;28;20551;-70
2020/12/07 07:29:26;;;;;;;34.20;20.30;;;;;;;;;;5047478;28;20169;-71
2020/12/07 07:31:52;;;;;;;38.90;22.87;;;;;;;;;;5035146;28;20186;-71
2020/12/07 07:34:17;;;;;;;36.10;20.83;;;;;;;;;;5048241;28;20221;-71
2020/12/07 07:36:42;;;;;;;36.30;21.90;;;;;;;;;;5035714;28;20182;-71
2020/12/07 07:39:13;;;;;;;35.10;20.20;;;;;;;;;;5045445;28;20185;-71
2020/12/07 07:41:41;;;;;;;34.97;20.13;;;;;;;;;;5036900;28;20196;-71
2020/12/07 07:44:06;;;;;;;38.50;21.87;;;;;;;;;;5050517;28;20185;-71
2020/12/07 07:46:33;;;;;;;32.80;19.80;;;;;;;;;;5037119;28;20750;-71
2020/12/07 07:54:58;;;;;;;35.70;21.13;;;;;;;;;;5050652;28;20185;-71
2020/12/07 08:00:40;;;;;;;37.20;21.13;;;;;;;;;;5048854;28;20216;-71
2020/12/07 08:12:36;;;;;;;38.03;21.23;;;;;;;;;;5043704;28;20596;-71
2020/12/07 08:17:17;;;;;;;36.80;21.53;;;;;;;;;;5048331;28;20200;-71
2020/12/07 08:19:44;;;;;;;36.40;20.70;;;;;;;;;;5037879;28;20204;-71
2020/12/07 08:22:16;;;;;;;37.37;21.70;;;;;;;;;;5047348;28;20178;-70
2020/12/07 08:24:50;;;;;;;37.43;21.03;;;;;;;;;;5038255;28;20205;-72
2020/12/07 08:27:16;;;;;;;36.10;21.27;;;;;;;;;;5050408;28;20260;-71
2020/12/07 08:29:41;;;;;;;37.80;21.47;;;;;;;;;;5039370;28;20268;-71
2020/12/07 08:32:20;;;;;;;35.37;21.87;;;;;;;;;;5048996;28;20213;-71
2020/12/07 08:34:45;;;;;;;37.50;21.93;;;;;;;;;;5039294;28;20602;-71
2020/12/07 08:37:10;;;;;;;42.00;23.20;;;;;;;;;;5047678;28;20189;-71
2020/12/07 08:39:36;;;;;;;37.93;22.17;;;;;;;;;;5036630;28;20209;-71
2020/12/07 08:42:01;;;;;;;35.30;20.93;;;;;;;;;;5049397;28;20177;-71
2020/12/07 08:44:26;;;;;;;39.27;22.40;;;;;;;;;;5039103;28;20651;-71
2020/12/07 08:46:51;;;;;;;35.77;21.50;;;;;;;;;;5048007;28;20217;-71
2020/12/07 08:49:17;;;;;;;37.13;21.97;;;;;;;;;;5039611;28;20182;-71
2020/12/07 08:51:42;;;;;;;40.00;22.13;;;;;;;;;;5047821;28;20219;-71
2020/12/07 08:54:07;;;;;;;39.97;22.70;;;;;;;;;;5047489;28;20706;-71
2020/12/07 08:56:33;;;;;;;35.17;22.13;;;;;;;;;;5039783;28;20696;-71
2020/12/07 08:58:58;;;;;;;37.00;21.53;;;;;;;;;;5046631;28;20177;-71
2020/12/07 09:01:23;;;;;;;37.83;20.77;;;;;;;;;;5037681;28;20224;-71
2020/12/07 09:03:49;;;;;;;34.07;19.87;;;;;;;;;;5043610;28;20200;-71
2020/12/07 09:06:15;;;;;;;34.20;20.57;;;;;;;;;;5039425;28;20269;-71
2020/12/07 09:08:40;;;;;;;31.47;18.93;;;;;;;;;;5045147;28;20197;-72
2020/12/07 09:11:07;;;;;;;31.17;19.27;;;;;;;;;;5037445;28;20184;-71
2020/12/07 09:13:35;;;;;;;35.03;19.57;;;;;;;;;;5046302;28;20189;-72
2020/12/07 09:16:01;;;;;;;32.47;19.50;;;;;;;;;;5037261;28;20267;-72
2020/12/07 09:18:29;;;;;;;29.30;17.67;;;;;;;;;;5047503;28;20732;-72
2020/12/07 09:20:55;;;;;;;30.17;18.30;;;;;;;;;;5041427;28;20212;-71
2020/12/07 09:23:21;;;;;;;33.13;19.43;;;;;;;;;;5051504;28;20197;-72
2020/12/07 09:25:49;;;;;;;29.17;18.10;;;;;;;;;;5049994;28;20197;-71
2020/12/07 09:28:15;;;;;;;29.90;18.47;;;;;;;;;;5040751;28;20586;-71
2020/12/07 09:30:43;;;;;;;29.43;18.50;;;;;;;;;;5051514;28;20184;-71
2020/12/07 09:33:09;;;;;;;29.77;18.10;;;;;;;;;;5040126;28;20269;-71
2020/12/07 09:35:34;;;;;;;29.33;17.83;;;;;;;;;;5049431;28;20781;-71
2020/12/07 09:38:00;;;;;;;24.47;16.40;;;;;;;;;;5041736;28;20199;-72
2020/12/07 09:40:26;;;;;;;27.17;15.20;;;;;;;;;;5051891;28;20233;-71
2020/12/07 09:42:51;;;;;;;27.13;15.73;;;;;;;;;;5040859;28;20653;-71
2020/12/07 09:45:16;;;;;;;24.57;14.67;;;;;;;;;;5068118;28;20239;-71
2020/12/07 09:47:42;;;;;;;23.87;15.50;;;;;;;;;;5040316;28;20211;-71
2020/12/07 09:50:08;;;;;;;25.50;15.87;;;;;;;;;;5053966;28;20196;-71
2020/12/07 09:52:35;;;;;;;24.47;15.90;;;;;;;;;;5043797;28;20178;-71
2020/12/07 09:55:00;;;;;;;26.90;16.67;;;;;;;;;;5053442;28;20182;-71
2020/12/07 09:57:26;;;;;;;23.40;16.00;;;;;;;;;;5052085;28;20725;-71
2020/12/07 09:59:51;;;;;;;25.47;16.43;;;;;;;;;;5040518;28;20210;-72
2020/12/07 10:02:17;;;;;;;27.80;16.47;;;;;;;;;;5051088;28;20177;-71
2020/12/07 10:04:43;;;;;;;28.63;16.23;;;;;;;;;;5043164;28;20196;-72
2020/12/07 10:07:09;;;;;;;27.57;16.67;;;;;;;;;;5052304;28;20761;-71
2020/12/07 10:09:34;;;;;;;27.03;16.13;;;;;;;;;;5040420;28;20178;-72
2020/12/07 10:12:00;;;;;;;27.57;16.60;;;;;;;;;;5051585;28;20185;-71
2020/12/07 10:14:25;;;;;;;28.30;18.00;;;;;;;;;;5043467;28;20198;-71
2020/12/07 10:16:51;;;;;;;29.50;18.03;;;;;;;;;;5049149;28;20555;-71
2020/12/07 10:19:16;;;;;;;26.83;17.87;;;;;;;;;;5042201;28;20255;-71
2020/12/07 10:21:41;;;;;;;28.20;18.33;;;;;;;;;;5048570;28;20189;-72
2020/12/07 10:24:07;;;;;;;31.50;18.83;;;;;;;;;;5043031;28;20181;-72
2020/12/07 10:26:33;;;;;;;31.60;18.20;;;;;;;;;;5053194;28;20248;-74
2020/12/07 10:28:59;;;;;;;32.93;18.50;;;;;;;;;;5051827;28;20189;-75
2020/12/07 10:31:24;;;;;;;31.73;18.33;;;;;;;;;;5041668;28;20243;-75
2020/12/07 10:33:51;;;;;;;30.57;19.13;;;;;;;;;;5052112;28;20622;-75
2020/12/07 10:36:17;;;;;;;34.33;19.83;;;;;;;;;;5039691;28;20185;-74
2020/12/07 10:38:43;;;;;;;33.03;19.83;;;;;;;;;;5039745;28;20231;-74
2020/12/07 10:41:09;;;;;;;32.13;19.70;;;;;;;;;;5041701;28;20212;-75
2020/12/07 10:43:34;;;;;;;31.33;19.77;;;;;;;;;;5052202;28;20186;-74
2020/12/07 10:46:00;;;;;;;33.57;20.63;;;;;;;;;;5041450;28;20247;-75
2020/12/07 10:48:25;;;;;;;30.47;19.67;;;;;;;;;;5050978;28;20181;-75
2020/12/07 10:50:50;;;;;;;30.97;19.63;;;;;;;;;;5040722;28;20186;-75
2020/12/07 10:53:16;;;;;;;34.20;19.83;;;;;;;;;;5047630;28;20190;-74
2020/12/07 10:55:41;;;;;;;30.93;19.77;;;;;;;;;;5035743;28;20212;-74
2020/12/07 10:58:06;;;;;;;29.53;20.47;;;;;;;;;;5048589;28;20249;-73
2020/12/07 11:00:32;;;;;;;30.90;19.57;;;;;;;;;;5050330;28;20198;-74
2020/12/07 11:02:57;;;;;;;31.57;20.37;;;;;;;;;;5041061;28;20186;-73
2020/12/07 11:05:23;;;;;;;33.60;20.10;;;;;;;;;;5051625;28;20184;-73
2020/12/07 11:07:51;;;;;;;29.57;19.93;;;;;;;;;;5041715;28;20201;-72
2020/12/07 11:10:16;;;;;;;31.57;19.43;;;;;;;;;;5050688;28;20178;-71
2020/12/07 11:12:44;;;;;;;30.93;19.10;;;;;;;;;;5042609;28;20716;-72
2020/12/07 11:15:10;;;;;;;28.97;20.50;;;;;;;;;;5047470;28;20208;-72
2020/12/07 11:17:35;;;;;;;26.47;18.87;;;;;;;;;;5043495;28;20739;-72
2020/12/07 11:20:00;;;;;;;28.30;19.43;;;;;;;;;;5048489;28;20197;-71
2020/12/07 11:22:26;;;;;;;28.30;19.73;;;;;;;;;;5038443;28;20576;-72
2020/12/07 11:24:51;;;;;;;24.27;17.43;;;;;;;;;;5051578;28;20223;-72
2020/12/07 11:27:16;;;;;;;29.07;19.67;;;;;;;;;;5040460;28;20196;-72
2020/12/07 11:29:42;;;;;;;28.97;20.30;;;;;;;;;;5044766;28;20208;-72
2020/12/07 11:32:07;;;;;;;30.10;20.17;;;;;;;;;;5050384;28;20246;-72
2020/12/07 11:34:32;;;;;;;30.73;20.63;;;;;;;;;;5039530;28;20692;-72
2020/12/07 11:36:57;;;;;;;33.93;21.53;;;;;;;;;;5047834;28;20193;-72
2020/12/07 11:39:40;;;;;;;31.90;22.40;;;;;;;;;;5042276;28;20657;-72
2020/12/07 11:44:34;;;;;;;31.60;22.00;;;;;;;;;;5039945;28;20189;-72
2020/12/07 11:47:02;;;;;;;32.13;22.23;;;;;;;;;;5048286;28;20560;-72
2020/12/07 11:49:28;;;;;;;30.87;21.70;;;;;;;;;;5038445;28;20188;-72
2020/12/07 11:51:53;;;;;;;33.67;23.00;;;;;;;;;;5046405;28;20193;-72
2020/12/07 11:54:19;;;;;;;35.33;24.20;;;;;;;;;;5040894;28;20193;-72
2020/12/07 11:56:44;;;;;;;34.93;23.80;;;;;;;;;;5050287;28;20262;-72
2020/12/07 11:59:11;;;;;;;34.60;24.57;;;;;;;;;;5040570;28;20250;-72
2020/12/07 12:01:36;;;;;;;39.17;23.97;;;;;;;;;;5046708;28;20228;-72
2020/12/07 12:04:03;;;;;;;36.73;24.70;;;;;;;;;;5047229;28;20656;-72
2020/12/07 12:06:37;;;;;;;36.13;23.50;;;;;;;;;;5046427;28;20212;-72
2020/12/07 12:09:09;;;;;;;36.00;24.77;;;;;;;;;;5046991;28;20252;-72
2020/12/07 12:11:36;;;;;;;36.50;22.93;;;;;;;;;;5042994;28;20181;-72
2020/12/07 12:14:03;;;;;;;33.83;23.10;;;;;;;;;;5046426;28;20177;-72
2020/12/07 12:16:29;;;;;;;31.00;22.03;;;;;;;;;;5036525;28;20588;-72
2020/12/07 12:18:55;;;;;;;31.93;21.53;;;;;;;;;;5051687;28;20177;-72
2020/12/07 12:21:21;;;;;;;32.40;22.20;;;;;;;;;;5039289;28;20604;-72
2020/12/07 12:23:47;;;;;;;33.53;22.37;;;;;;;;;;5048958;28;20189;-72
2020/12/07 12:26:14;;;;;;;32.73;21.97;;;;;;;;;;5038694;28;20199;-72
2020/12/07 12:28:39;;;;;;;35.87;22.67;;;;;;;;;;5047774;28;20227;-72
2020/12/07 12:31:05;;;;;;;33.73;21.53;;;;;;;;;;5038976;28;20185;-74
2020/12/07 12:33:30;;;;;;;33.53;22.60;;;;;;;;;;5050196;28;20302;-72
2020/12/07 12:35:56;;;;;;;34.07;21.80;;;;;;;;;;5038027;28;20192;-72
2020/12/07 12:38:21;;;;;;;35.07;22.00;;;;;;;;;;5049617;28;20182;-71
2020/12/07 12:40:46;;;;;;;33.17;20.63;;;;;;;;;;5047799;28;20235;-71
2020/12/07 12:43:12;;;;;;;34.53;22.20;;;;;;;;;;5039901;28;20224;-72
2020/12/07 12:45:37;;;;;;;34.87;22.97;;;;;;;;;;5046169;28;20288;-72
2020/12/07 12:48:02;;;;;;;38.10;23.50;;;;;;;;;;5039778;28;20250;-72
2020/12/07 12:50:28;;;;;;;39.13;24.43;;;;;;;;;;5044364;28;20217;-72
2020/12/07 12:52:53;;;;;;;36.70;23.00;;;;;;;;;;5040484;28;20193;-72
2020/12/07 12:55:18;;;;;;;37.13;23.13;;;;;;;;;;5048887;28;20185;-72
2020/12/07 12:57:45;;;;;;;39.20;24.10;;;;;;;;;;5039045;28;20181;-72
2020/12/07 13:00:10;;;;;;;39.50;23.83;;;;;;;;;;5047638;28;20580;-72
2020/12/07 13:02:35;;;;;;;41.80;25.90;;;;;;;;;;5038736;28;20197;-72
2020/12/07 13:05:01;;;;;;;39.33;25.10;;;;;;;;;;5046101;28;20208;-72
2020/12/07 13:07:26;;;;;;;40.53;24.60;;;;;;;;;;5042005;28;20247;-72
2020/12/07 13:09:51;;;;;;;42.20;25.83;;;;;;;;;;5043533;28;20638;-72
2020/12/07 13:12:17;;;;;;;41.10;25.23;;;;;;;;;;5047850;28;20200;-71
2020/12/07 13:14:42;;;;;;;41.13;24.63;;;;;;;;;;5038204;28;20678;-72
2020/12/07 13:17:11;;;;;;;41.17;24.23;;;;;;;;;;5046032;28;20185;-72
2020/12/07 13:19:36;;;;;;;42.37;24.30;;;;;;;;;;5036765;28;20184;-72
2020/12/07 13:22:16;;;;;;;38.13;23.73;;;;;;;;;;5045214;28;20177;-72
2020/12/07 13:24:51;;;;;;;43.27;25.60;;;;;;;;;;5037839;28;20177;-71
2020/12/07 13:29:50;;;;;;;42.63;25.87;;;;;;;;;;5039441;28;20190;-72
2020/12/07 13:32:16;;;;;;;41.63;25.20;;;;;;;;;;5042921;28;20512;-73
2020/12/07 13:34:41;;;;;;;43.63;25.00;;;;;;;;;;5036193;28;20198;-72
2020/12/07 13:37:06;;;;;;;44.73;26.50;;;;;;;;;;5048844;28;20193;-72
2020/12/07 13:39:32;;;;;;;45.83;26.83;;;;;;;;;;5037614;28;20196;-72
2020/12/07 13:41:57;;;;;;;45.97;26.60;;;;;;;;;;4343765;28;10000862;-73
2020/12/07 13:44:23;;;;;;;52.57;27.87;;;;;;;;;;5035588;28;20257;-73
2020/12/07 13:46:48;;;;;;;50.70;27.17;;;;;;;;;;5043778;28;20228;-73
2020/12/07 13:49:13;;;;;;;46.17;26.93;;;;;;;;;;5042839;28;20271;-73
2020/12/07 13:51:39;;;;;;;44.90;27.23;;;;;;;;;;5035545;28;20217;-73
2020/12/07 13:54:04;;;;;;;49.40;26.97;;;;;;;;;;5044692;28;20269;-74
2020/12/07 13:56:30;;;;;;;45.57;26.43;;;;;;;;;;5035133;28;20691;-73
2020/12/07 13:58:56;;;;;;;48.00;25.47;;;;;;;;;;5044071;28;20194;-74
2020/12/07 14:01:22;;;;;;;46.80;26.90;;;;;;;;;;5033434;28;20201;-75
2020/12/07 14:04:04;;;;;;;49.93;26.20;;;;;;;;;;5040717;28;20225;-74
2020/12/07 14:06:30;;;;;;;44.13;25.80;;;;;;;;;;5035695;28;20189;-75
2020/12/07 14:08:56;;;;;;;44.20;25.43;;;;;;;;;;5045925;28;20228;-74
2020/12/07 14:11:22;;;;;;;44.93;26.23;;;;;;;;;;5040558;28;20290;-74
2020/12/07 14:13:47;;;;;;;48.53;25.53;;;;;;;;;;5043312;28;20572;-74
2020/12/07 14:16:19;;;;;;;42.70;24.10;;;;;;;;;;5038144;28;20182;-75
2020/12/07 14:18:59;;;;;;;48.63;25.90;;;;;;;;;;5043939;28;20231;-75
2020/12/07 14:21:54;;;;;;;41.10;24.07;;;;;;;;;;5038057;28;20695;-74
2020/12/07 14:24:29;;;;;;;53.53;27.47;;;;;;;;;;5044693;28;20213;-73
2020/12/07 14:27:57;;;;;;;42.27;23.67;;;;;;;;;;5039034;28;20733;-74
2020/12/07 14:40:24;;;;;;;46.03;25.40;;;;;;;;;;5046234;28;20318;-72
2020/12/07 14:42:50;;;;;;;47.20;26.33;;;;;;;;;;5036727;28;20223;-72
2020/12/07 14:45:23;;;;;;;52.37;27.10;;;;;;;;;;5062246;28;20196;-72
2020/12/07 14:47:55;;;;;;;47.60;26.57;;;;;;;;;;5036715;28;20185;-72
2020/12/07 14:50:26;;;;;;;50.20;28.37;;;;;;;;;;5039602;28;20545;-73
2020/12/07 14:52:52;;;;;;;50.47;26.70;;;;;;;;;;5037273;28;20193;-72
2020/12/07 14:55:33;;;;;;;44.00;25.43;;;;;;;;;;5047522;28;20637;-72
2020/12/07 15:06:15;;;;;;;51.27;29.10;;;;;;;;;;5045265;28;20307;-72
2020/12/07 15:14:00;;;;;;;51.90;28.27;;;;;;;;;;5043183;28;20201;-72